Time;durP1;ratioP1;P1;durP2;ratioP2;P2;SDS_P1;SDS_P2;PMS_P1;PMS_P2;Temp;Humidity;BMP_temperature;BMP_pressure;BME280_temperature;BME280_humidity;BME280_pressure;Samples;Min_cycle;Max_cycle;Signal;HPM_P1;HPM_P2
2024/04/26 00:00:01;;;;;;;4.80;2.80;;;7.90;92.70;;;;;;5354759;26;20029;-73
2024/04/26 00:02:47;;;;;;;4.30;3.03;;;7.90;92.80;;;;;;5357306;26;20008;-73
2024/04/26 00:05:33;;;;;;;3.90;3.10;;;7.90;92.80;;;;;;5372682;26;20015;-73
2024/04/26 00:08:19;;;;;;;7.80;3.10;;;7.80;92.90;;;;;;5360961;26;20000;-72
2024/04/26 00:11:05;;;;;;;4.07;2.67;;;7.90;93.00;;;;;;5376242;26;19996;-72
2024/04/26 00:13:52;;;;;;;3.60;2.63;;;7.80;93.10;;;;;;5381580;26;20337;-72
2024/04/26 00:16:42;;;;;;;5.85;2.83;;;7.80;93.20;;;;;;5384481;26;20014;-73
2024/04/26 00:19:28;;;;;;;4.18;3.03;;;7.80;93.30;;;;;;5381473;26;20005;-72
2024/04/26 00:22:13;;;;;;;4.45;2.38;;;7.80;93.40;;;;;;5385119;26;19992;-72
2024/04/26 00:24:59;;;;;;;4.43;2.45;;;7.80;93.40;;;;;;5354155;26;20000;-73
2024/04/26 00:27:45;;;;;;;4.18;2.53;;;7.80;93.50;;;;;;5384148;26;20134;-72
2024/04/26 00:30:31;;;;;;;3.30;2.35;;;7.80;93.60;;;;;;5381846;26;20008;-73
2024/04/26 00:33:17;;;;;;;4.25;2.70;;;7.80;93.60;;;;;;5447698;26;19995;-72
2024/04/26 00:36:03;;;;;;;3.63;2.50;;;7.80;93.70;;;;;;5388558;26;19992;-72
2024/04/26 00:38:49;;;;;;;4.15;2.30;;;7.80;93.70;;;;;;5411944;26;19999;-72
2024/04/26 00:41:35;;;;;;;3.95;2.50;;;7.90;93.80;;;;;;5404124;26;19995;-72
2024/04/26 00:44:21;;;;;;;3.30;2.17;;;7.90;93.80;;;;;;5401109;26;20450;-72
2024/04/26 00:47:07;;;;;;;5.60;2.28;;;7.90;93.80;;;;;;5390453;26;20032;-68
2024/04/26 00:49:53;;;;;;;3.10;2.08;;;7.90;93.90;;;;;;5434896;26;20031;-68
2024/04/26 00:52:40;;;;;;;3.47;2.42;;;7.90;93.90;;;;;;5416736;26;20342;-68
2024/04/26 00:55:26;;;;;;;2.80;2.00;;;7.90;93.90;;;;;;5411513;26;20035;-67
2024/04/26 00:58:15;;;;;;;3.05;2.30;;;7.90;94.00;;;;;;5394256;26;20047;-67
2024/04/26 01:01:01;;;;;;;3.80;2.50;;;7.90;94.00;;;;;;5406922;26;19996;-68
2024/04/26 01:03:48;;;;;;;3.05;2.17;;;7.90;94.00;;;;;;5412388;26;20350;-68
2024/04/26 01:06:34;;;;;;;3.45;2.40;;;7.90;94.00;;;;;;5412495;26;20036;-68
2024/04/26 01:09:20;;;;;;;4.43;2.63;;;7.90;94.20;;;;;;5413185;26;20003;-68
2024/04/26 01:12:05;;;;;;;4.78;2.92;;;7.90;94.10;;;;;;5413223;26;20003;-67
2024/04/26 01:14:51;;;;;;;3.22;2.20;;;7.90;94.10;;;;;;5379186;26;20004;-67
2024/04/26 01:17:38;;;;;;;3.90;2.55;;;7.90;94.20;;;;;;5408594;26;20004;-67
2024/04/26 01:20:26;;;;;;;3.35;2.47;;;7.90;94.40;;;;;;5414559;26;20024;-68
2024/04/26 01:23:12;;;;;;;4.05;2.70;;;7.90;94.20;;;;;;5411968;26;20036;-67
2024/04/26 01:26:00;;;;;;;3.92;2.72;;;8.00;94.30;;;;;;5396689;26;20435;-67
2024/04/26 01:28:46;;;;;;;4.82;2.47;;;8.00;94.30;;;;;;5413164;26;20015;-67
2024/04/26 01:31:32;;;;;;;2.78;2.42;;;7.90;94.30;;;;;;5365145;26;20366;-73
2024/04/26 01:34:18;;;;;;;2.65;2.05;;;8.00;94.30;;;;;;5353021;26;19994;-72
2024/04/26 01:37:05;;;;;;;4.07;2.58;;;8.00;94.40;;;;;;5297791;26;20025;-72
2024/04/26 01:39:51;;;;;;;2.83;2.17;;;8.00;94.40;;;;;;5352098;26;20008;-73
2024/04/26 01:42:37;;;;;;;2.83;2.13;;;8.00;94.40;;;;;;5342010;26;20016;-73
2024/04/26 01:45:23;;;;;;;4.55;2.50;;;8.00;94.40;;;;;;5356049;26;20433;-73
2024/04/26 01:48:09;;;;;;;4.32;2.47;;;8.10;94.50;;;;;;5331705;26;19998;-73
2024/04/26 01:50:55;;;;;;;3.45;2.50;;;8.10;94.50;;;;;;5331468;26;20002;-73
2024/04/26 01:53:40;;;;;;;3.33;2.13;;;8.10;94.50;;;;;;5333546;26;20037;-73
2024/04/26 01:56:26;;;;;;;3.80;2.58;;;8.10;94.50;;;;;;5321979;26;20282;-72
2024/04/26 01:59:12;;;;;;;4.82;2.47;;;8.10;94.40;;;;;;5314660;26;19997;-72
2024/04/26 02:01:58;;;;;;;4.00;2.72;;;8.10;94.40;;;;;;5316238;26;20015;-74
2024/04/26 02:04:44;;;;;;;6.10;2.47;;;8.10;94.50;;;;;;5333668;26;19993;-74
2024/04/26 02:07:30;;;;;;;3.60;2.75;;;8.10;94.50;;;;;;5333392;26;20008;-73
2024/04/26 02:10:17;;;;;;;4.30;2.78;;;8.10;94.50;;;;;;5297798;26;20010;-73
2024/04/26 02:13:03;;;;;;;4.47;2.97;;;8.10;94.50;;;;;;5332444;26;20040;-73
2024/04/26 02:15:49;;;;;;;3.47;2.92;;;8.10;94.50;;;;;;5323085;26;20040;-73
2024/04/26 02:18:35;;;;;;;3.80;2.55;;;8.20;94.50;;;;;;5357611;26;20004;-73
2024/04/26 02:21:21;;;;;;;5.18;2.78;;;8.20;94.50;;;;;;5364762;26;20020;-73
2024/04/26 02:24:07;;;;;;;3.95;2.67;;;8.10;94.50;;;;;;5336876;26;20522;-73
2024/04/26 02:26:53;;;;;;;3.92;2.92;;;8.10;94.50;;;;;;5366458;26;20048;-72
2024/04/26 02:29:39;;;;;;;3.97;2.65;;;8.10;94.50;;;;;;5350415;26;20000;-72
2024/04/26 02:32:24;;;;;;;3.60;2.40;;;8.10;94.50;;;;;;5426003;26;20366;-74
2024/04/26 02:35:11;;;;;;;3.35;2.80;;;8.10;94.60;;;;;;5384695;26;20540;-75
2024/04/26 02:37:58;;;;;;;3.85;2.70;;;8.10;94.60;;;;;;5402160;26;20011;-75
2024/04/26 02:40:44;;;;;;;4.53;3.00;;;8.10;94.60;;;;;;5391898;26;20022;-75
2024/04/26 02:43:30;;;;;;;4.45;3.30;;;8.10;94.60;;;;;;5381377;26;20044;-74
2024/04/26 02:46:16;;;;;;;4.85;2.58;;;8.10;94.80;;;;;;5397876;26;20073;-74
2024/04/26 02:49:02;;;;;;;4.70;2.90;;;8.10;94.60;;;;;;5408010;26;20146;-73
2024/04/26 02:51:48;;;;;;;3.58;2.72;;;8.10;94.60;;;;;;5423637;26;20057;-73
2024/04/26 02:54:34;;;;;;;3.95;2.72;;;8.10;94.60;;;;;;5411500;26;20012;-73
2024/04/26 02:57:20;;;;;;;3.10;2.53;;;8.10;94.60;;;;;;5415733;26;20295;-73
2024/04/26 03:00:06;;;;;;;3.90;2.75;;;8.10;94.60;;;;;;5410407;26;20393;-73
2024/04/26 03:02:53;;;;;;;4.32;2.78;;;8.10;94.60;;;;;;5391351;26;20463;-74
2024/04/26 03:05:39;;;;;;;3.67;2.58;;;8.10;94.60;;;;;;5398254;26;19992;-74
2024/04/26 03:08:25;;;;;;;3.35;2.70;;;8.10;94.70;;;;;;5371549;26;19999;-74
2024/04/26 03:11:18;;;;;;;3.42;2.75;;;8.10;94.70;;;;;;5416788;26;20046;-66
2024/04/26 03:14:04;;;;;;;4.43;2.80;;;8.00;94.70;;;;;;5386151;26;20008;-65
2024/04/26 03:16:50;;;;;;;4.05;2.85;;;8.00;94.70;;;;;;5415097;26;20026;-65
2024/04/26 03:19:36;;;;;;;4.90;3.00;;;7.90;94.70;;;;;;5406809;26;20008;-67
2024/04/26 03:22:22;;;;;;;5.47;2.85;;;7.90;94.70;;;;;;5414254;26;20032;-66
2024/04/26 03:25:09;;;;;;;4.25;2.92;;;7.90;94.70;;;;;;5434952;26;20434;-66
2024/04/26 03:27:56;;;;;;;4.72;3.35;;;7.80;94.70;;;;;;5424814;26;20029;-66
2024/04/26 03:30:42;;;;;;;4.18;2.85;;;7.80;94.80;;;;;;5441584;26;20046;-66
2024/04/26 03:33:28;;;;;;;5.60;3.17;;;7.70;94.80;;;;;;5407864;26;20019;-66
2024/04/26 03:36:14;;;;;;;4.53;3.15;;;7.70;94.80;;;;;;5390277;26;20326;-66
2024/04/26 03:39:00;;;;;;;3.85;2.97;;;7.60;94.80;;;;;;5413130;26;20081;-66
2024/04/26 03:41:46;;;;;;;4.75;3.13;;;7.60;94.90;;;;;;5420936;26;19995;-66
2024/04/26 03:44:32;;;;;;;6.22;3.90;;;7.60;94.90;;;;;;5380481;26;20003;-66
2024/04/26 03:47:18;;;;;;;5.80;3.45;;;7.50;94.90;;;;;;5402871;26;20442;-66
2024/04/26 03:50:04;;;;;;;4.13;2.78;;;7.50;95.00;;;;;;5427919;26;20450;-66
2024/04/26 03:52:50;;;;;;;7.22;2.85;;;7.50;95.00;;;;;;5412602;26;20101;-67
2024/04/26 03:55:36;;;;;;;4.38;2.80;;;7.40;95.10;;;;;;5413582;26;20019;-67
2024/04/26 03:58:22;;;;;;;4.80;3.30;;;7.40;95.10;;;;;;5414903;26;20026;-67
2024/04/26 04:01:08;;;;;;;4.32;3.10;;;7.40;95.10;;;;;;5410621;26;19992;-66
2024/04/26 04:03:54;;;;;;;5.10;3.45;;;7.40;95.20;;;;;;5421103;26;20327;-66
2024/04/26 04:06:40;;;;;;;7.90;3.95;;;7.30;95.20;;;;;;5381314;26;20095;-66
2024/04/26 04:09:26;;;;;;;5.70;2.90;;;7.30;95.30;;;;;;5402311;26;19999;-66
2024/04/26 04:12:12;;;;;;;4.43;2.97;;;7.30;95.30;;;;;;5411729;26;19996;-66
2024/04/26 04:14:58;;;;;;;5.30;3.30;;;7.30;95.30;;;;;;5409138;26;20007;-66
2024/04/26 04:17:44;;;;;;;5.07;3.55;;;7.30;95.40;;;;;;5410190;26;20012;-66
2024/04/26 04:20:30;;;;;;;4.82;3.30;;;7.30;95.40;;;;;;5386433;26;20000;-67
2024/04/26 04:23:16;;;;;;;8.20;4.22;;;7.30;95.50;;;;;;5407644;26;20027;-72
2024/04/26 04:26:02;;;;;;;4.55;3.45;;;7.30;95.60;;;;;;5407531;26;20352;-73
2024/04/26 04:28:48;;;;;;;7.70;3.53;;;7.30;95.70;;;;;;5413102;26;19996;-73
2024/04/26 04:31:34;;;;;;;6.18;4.10;;;7.30;95.80;;;;;;5412748;26;20000;-73
2024/04/26 04:34:20;;;;;;;5.35;3.80;;;7.40;95.80;;;;;;5387592;26;19999;-73
2024/04/26 04:37:06;;;;;;;5.20;3.50;;;7.40;95.90;;;;;;5371020;26;20010;-74
2024/04/26 04:39:52;;;;;;;5.03;4.00;;;7.40;95.90;;;;;;5412507;26;20392;-73
2024/04/26 04:42:38;;;;;;;4.82;3.92;;;7.50;95.90;;;;;;5414169;26;20011;-73
2024/04/26 04:45:24;;;;;;;6.07;3.53;;;7.60;95.90;;;;;;5438210;26;20451;-78
2024/04/26 04:48:10;;;;;;;6.28;4.38;;;7.60;95.90;;;;;;5386830;26;20331;-76
2024/04/26 04:50:56;;;;;;;5.60;3.40;;;7.60;95.80;;;;;;5424405;26;19995;-71
2024/04/26 04:53:42;;;;;;;4.32;3.30;;;7.60;95.80;;;;;;5419826;26;20022;-74
2024/04/26 04:56:28;;;;;;;7.10;4.47;;;7.70;95.80;;;;;;5409821;26;20442;-74
2024/04/26 04:59:15;;;;;;;4.80;3.95;;;7.70;95.80;;;;;;5404704;26;20064;-79
2024/04/26 05:02:01;;;;;;;5.78;3.88;;;7.80;95.80;;;;;;5414233;26;20011;-73
2024/04/26 05:04:46;;;;;;;4.57;3.22;;;7.80;95.70;;;;;;5396272;26;20014;-75
2024/04/26 05:07:32;;;;;;;7.43;3.83;;;7.80;95.70;;;;;;5413356;26;20007;-73
2024/04/26 05:10:18;;;;;;;4.68;3.38;;;7.80;95.70;;;;;;5409061;26;20004;-73
2024/04/26 05:13:04;;;;;;;7.30;4.32;;;7.90;95.90;;;;;;5414607;26;19995;-71
2024/04/26 05:15:50;;;;;;;4.85;3.75;;;7.90;95.70;;;;;;5417977;26;20005;-72
2024/04/26 05:18:36;;;;;;;5.13;3.95;;;7.90;95.60;;;;;;5409295;26;20008;-73
2024/04/26 05:21:22;;;;;;;4.90;3.08;;;8.00;95.60;;;;;;5400472;26;20447;-65
2024/04/26 05:24:08;;;;;;;6.18;4.00;;;8.00;95.60;;;;;;5397816;26;20298;-65
2024/04/26 05:26:54;;;;;;;4.85;3.50;;;8.00;95.60;;;;;;5412458;26;20007;-65
2024/04/26 05:29:40;;;;;;;7.40;4.18;;;8.00;95.50;;;;;;5407717;26;20040;-64
2024/04/26 05:32:27;;;;;;;4.60;3.53;;;8.00;95.50;;;;;;5422278;26;19991;-72
2024/04/26 05:35:13;;;;;;;8.50;4.65;;;8.00;95.40;;;;;;5432547;26;19995;-70
2024/04/26 05:37:59;;;;;;;5.47;4.25;;;8.00;95.40;;;;;;5414160;26;19991;-69
2024/04/26 05:40:48;;;;;;;5.53;3.28;;;8.10;95.50;;;;;;5402491;26;20336;-71
2024/04/26 05:43:34;;;;;;;6.32;4.03;;;8.10;95.50;;;;;;5424618;26;19999;-71
2024/04/26 05:46:20;;;;;;;4.60;3.20;;;8.20;95.40;;;;;;5406025;26;20029;-71
2024/04/26 05:49:05;;;;;;;5.93;4.13;;;8.20;95.40;;;;;;5401683;26;20270;-72
2024/04/26 05:51:51;;;;;;;7.28;3.60;;;8.20;95.40;;;;;;5398840;26;20000;-71
2024/04/26 05:54:37;;;;;;;6.53;3.70;;;8.30;95.40;;;;;;5405307;26;20416;-72
2024/04/26 05:57:23;;;;;;;6.93;4.55;;;8.40;95.40;;;;;;5414243;26;20434;-71
2024/04/26 06:00:10;;;;;;;5.55;3.38;;;8.40;95.40;;;;;;5443239;26;19995;-71
2024/04/26 06:02:56;;;;;;;5.30;3.55;;;8.50;95.30;;;;;;5398505;26;20015;-72
2024/04/26 06:05:42;;;;;;;5.80;4.03;;;8.60;95.30;;;;;;5415830;26;19992;-71
2024/04/26 06:08:30;;;;;;;7.75;4.43;;;8.70;95.30;;;;;;5409717;26;20011;-74
2024/04/26 06:11:16;;;;;;;7.15;3.75;;;8.80;95.30;;;;;;5415663;26;20000;-74
2024/04/26 06:14:02;;;;;;;6.25;3.15;;;8.90;95.30;;;;;;5416995;26;19992;-72
2024/04/26 06:16:48;;;;;;;5.00;3.50;;;9.00;95.30;;;;;;5433781;26;19995;-71
2024/04/26 06:19:34;;;;;;;5.82;3.85;;;9.10;95.20;;;;;;5396059;26;20005;-71
2024/04/26 06:22:20;;;;;;;5.97;4.15;;;9.20;95.10;;;;;;5372220;26;20543;-72
2024/04/26 06:25:06;;;;;;;5.88;3.70;;;9.30;95.00;;;;;;5392238;26;20065;-72
2024/04/26 06:27:52;;;;;;;7.10;4.07;;;9.40;94.90;;;;;;5403340;26;20011;-72
2024/04/26 06:30:38;;;;;;;7.13;3.35;;;9.50;94.80;;;;;;5405548;26;20011;-73
2024/04/26 06:33:24;;;;;;;7.25;3.88;;;9.50;94.70;;;;;;5380374;26;19999;-72
2024/04/26 06:36:10;;;;;;;9.10;3.63;;;9.60;94.60;;;;;;5387310;26;20078;-72
2024/04/26 06:38:56;;;;;;;7.93;3.05;;;9.70;94.40;;;;;;5379395;26;20019;-74
2024/04/26 06:41:42;;;;;;;5.00;3.45;;;9.80;94.30;;;;;;5388978;26;20335;-73
2024/04/26 06:44:28;;;;;;;4.70;3.08;;;9.90;94.20;;;;;;5392299;26;19996;-69
2024/04/26 06:47:14;;;;;;;6.05;3.10;;;10.00;94.10;;;;;;5414677;26;20017;-72
2024/04/26 06:50:00;;;;;;;4.60;2.67;;;10.10;93.90;;;;;;5394987;26;20462;-73
2024/04/26 06:52:46;;;;;;;6.10;3.08;;;10.20;93.70;;;;;;5404610;26;20573;-73
2024/04/26 06:55:32;;;;;;;4.25;3.10;;;10.30;93.60;;;;;;5383593;26;19991;-71
2024/04/26 06:58:18;;;;;;;7.22;3.00;;;10.40;93.50;;;;;;5411508;26;20000;-72
2024/04/26 17:41:15;;;;;;;4.88;2.50;;;16.30;59.10;;;;;;5417561;26;19991;-65
2024/04/26 17:44:00;;;;;;;4.45;2.25;;;16.20;59.20;;;;;;5358917;26;20004;-65
2024/04/26 17:46:46;;;;;;;4.55;2.47;;;16.10;59.50;;;;;;5357425;26;20001;-65
2024/04/26 17:49:33;;;;;;;3.70;2.28;;;16.00;59.90;;;;;;5401826;26;20019;-65
2024/04/26 17:52:20;;;;;;;4.95;2.58;;;16.00;59.70;;;;;;5382237;26;20475;-67
2024/04/26 17:55:09;;;;;;;4.93;2.20;;;16.00;59.80;;;;;;5377939;26;20460;-65
2024/04/26 17:57:55;;;;;;;4.18;2.20;;;15.90;59.90;;;;;;5353694;26;19997;-64
2024/04/26 18:00:41;;;;;;;2.92;2.28;;;15.90;60.00;;;;;;5382985;26;20067;-66
2024/04/26 18:03:27;;;;;;;4.93;2.70;;;15.90;60.60;;;;;;5385849;26;20093;-66
2024/04/26 18:06:14;;;;;;;3.80;2.17;;;15.90;60.30;;;;;;5341239;26;20009;-66
2024/04/26 18:09:00;;;;;;;4.65;2.85;;;15.80;60.50;;;;;;5375809;26;20058;-66
2024/04/26 18:11:46;;;;;;;5.93;3.00;;;15.80;60.60;;;;;;5356328;26;20004;-66
2024/04/26 18:14:32;;;;;;;6.25;2.80;;;15.80;60.70;;;;;;5379121;26;20000;-66
2024/04/26 18:17:18;;;;;;;5.53;2.33;;;15.70;60.80;;;;;;5359313;26;20366;-65
2024/04/26 18:20:05;;;;;;;3.72;2.30;;;15.70;60.90;;;;;;5314456;26;20335;-65
2024/04/26 18:22:50;;;;;;;7.32;2.45;;;15.60;60.90;;;;;;5351670;26;20008;-65
2024/04/26 18:25:36;;;;;;;4.13;2.30;;;15.60;60.90;;;;;;5358136;26;20073;-66
2024/04/26 18:28:22;;;;;;;4.93;3.00;;;15.60;61.00;;;;;;5401136;26;20014;-64
2024/04/26 18:31:09;;;;;;;7.20;2.90;;;15.60;61.10;;;;;;5358628;26;20016;-64
2024/04/26 18:33:55;;;;;;;4.53;2.33;;;15.60;61.10;;;;;;5371970;26;20011;-64
2024/04/26 18:36:41;;;;;;;4.85;2.25;;;15.50;61.20;;;;;;5379566;26;19996;-67
2024/04/26 18:39:27;;;;;;;5.10;2.83;;;15.50;61.50;;;;;;5380570;26;19997;-67
2024/04/26 18:42:13;;;;;;;4.13;2.38;;;15.40;61.60;;;;;;5370462;26;20073;-68
2024/04/26 18:44:59;;;;;;;2.92;2.10;;;15.50;61.90;;;;;;5420982;26;20364;-67
2024/04/26 18:47:45;;;;;;;3.40;2.33;;;15.40;61.90;;;;;;5428034;26;20420;-68
2024/04/26 18:50:31;;;;;;;4.50;2.60;;;15.40;62.10;;;;;;5418889;26;20036;-68
2024/04/26 18:53:17;;;;;;;4.47;2.50;;;15.40;62.10;;;;;;5347549;26;20003;-67
2024/04/26 18:56:03;;;;;;;7.18;2.42;;;15.40;62.30;;;;;;5418460;26;20027;-68
2024/04/26 18:58:49;;;;;;;6.18;2.58;;;15.30;62.20;;;;;;5380545;26;20557;-67
2024/04/26 19:01:35;;;;;;;4.60;2.35;;;15.30;62.40;;;;;;5393032;26;20014;-65
2024/04/26 19:04:22;;;;;;;3.78;2.40;;;15.30;62.70;;;;;;5411660;26;20000;-68
2024/04/26 19:07:08;;;;;;;3.83;2.10;;;15.20;62.70;;;;;;5429847;26;19999;-68
2024/04/26 19:09:54;;;;;;;5.03;2.50;;;15.20;62.80;;;;;;5441371;26;20011;-68
2024/04/26 19:12:41;;;;;;;5.60;2.42;;;15.20;63.10;;;;;;5392209;26;20007;-69
2024/04/26 19:15:29;;;;;;;5.97;3.22;;;15.20;63.20;;;;;;5398821;26;19999;-69
2024/04/26 19:18:15;;;;;;;3.85;2.63;;;15.10;63.10;;;;;;5408077;26;20059;-71
2024/04/26 19:21:01;;;;;;;4.32;2.03;;;15.10;63.10;;;;;;5378957;26;20001;-69
2024/04/26 19:23:47;;;;;;;4.15;2.60;;;15.00;63.40;;;;;;5381606;26;20000;-69
2024/04/26 19:26:33;;;;;;;5.40;2.33;;;15.00;63.40;;;;;;5413078;26;20003;-69
2024/04/26 19:29:20;;;;;;;4.50;2.83;;;14.90;63.50;;;;;;5413109;26;19999;-68
2024/04/26 19:32:09;;;;;;;4.68;2.60;;;14.90;63.70;;;;;;5391350;26;20531;-69
2024/04/26 19:34:56;;;;;;;4.47;2.75;;;14.70;63.70;;;;;;5391245;26;20544;-69
2024/04/26 19:37:43;;;;;;;6.57;3.00;;;14.70;63.70;;;;;;5416689;26;20339;-69
2024/04/26 19:40:29;;;;;;;4.65;2.50;;;14.60;63.60;;;;;;5378421;26;20008;-69
2024/04/26 19:43:15;;;;;;;7.82;2.95;;;14.60;63.90;;;;;;5384413;26;20028;-69
2024/04/26 19:46:01;;;;;;;7.93;3.50;;;14.50;64.20;;;;;;5410631;26;20018;-68
2024/04/26 19:48:47;;;;;;;8.25;4.50;;;14.40;64.50;;;;;;5396764;26;20004;-68
2024/04/26 19:51:33;;;;;;;20.00;5.28;;;14.40;64.70;;;;;;5397753;26;20102;-68
2024/04/26 19:57:24;;;;;;;7.65;4.20;;;14.20;65.10;;;;;;5399091;26;20010;-68
2024/04/26 20:00:11;;;;;;;6.75;4.15;;;14.10;65.30;;;;;;5395419;26;20003;-69
2024/04/26 20:02:57;;;;;;;5.88;4.00;;;14.10;65.30;;;;;;5389401;26;20010;-69
2024/04/26 20:05:43;;;;;;;6.63;4.15;;;14.00;65.30;;;;;;5406732;26;20008;-68
2024/04/26 20:08:30;;;;;;;7.82;4.15;;;14.00;65.40;;;;;;5400153;26;20072;-67
2024/04/26 20:11:17;;;;;;;5.90;4.28;;;13.90;65.70;;;;;;5395156;26;19992;-67
2024/04/26 20:14:03;;;;;;;6.78;3.90;;;13.80;65.90;;;;;;5413301;26;20003;-67
2024/04/26 20:16:49;;;;;;;5.70;3.90;;;13.80;66.10;;;;;;5399278;26;20077;-67
2024/04/26 20:19:35;;;;;;;7.03;4.53;;;13.70;66.20;;;;;;5408889;26;19995;-66
2024/04/26 20:22:24;;;;;;;6.15;3.70;;;13.60;66.40;;;;;;5378467;26;19989;-66
2024/04/26 20:25:11;;;;;;;10.15;4.32;;;13.60;66.70;;;;;;5398796;26;20010;-67
2024/04/26 20:27:57;;;;;;;6.65;3.80;;;13.50;66.70;;;;;;5397262;26;20024;-66
2024/04/26 20:30:43;;;;;;;5.60;3.58;;;13.50;67.10;;;;;;5411525;26;20347;-66
2024/04/26 20:33:29;;;;;;;6.00;3.95;;;13.40;67.30;;;;;;5449372;26;20006;-67
2024/04/26 20:36:15;;;;;;;5.20;4.03;;;13.40;67.50;;;;;;5409060;26;20003;-67
2024/04/26 20:39:01;;;;;;;8.50;5.07;;;13.40;67.80;;;;;;5424198;26;19996;-66
2024/04/26 20:41:47;;;;;;;8.40;5.00;;;13.30;68.00;;;;;;5408391;26;20003;-67
2024/04/26 20:44:33;;;;;;;5.60;3.75;;;13.30;68.30;;;;;;5397821;26;20023;-67
2024/04/26 20:47:19;;;;;;;7.70;4.10;;;13.30;68.60;;;;;;5415358;26;19999;-67
2024/04/26 20:50:05;;;;;;;7.68;4.80;;;13.20;68.80;;;;;;5381648;26;20004;-69
2024/04/26 20:52:51;;;;;;;7.72;5.00;;;13.10;69.00;;;;;;5402179;26;19995;-68
2024/04/26 20:55:37;;;;;;;7.72;4.47;;;13.10;69.30;;;;;;5401022;26;19996;-68
2024/04/26 20:58:24;;;;;;;7.95;4.47;;;13.00;69.20;;;;;;5386104;26;19991;-68
2024/04/26 21:01:14;;;;;;;10.38;4.55;;;13.00;69.10;;;;;;5397544;26;19995;-68
2024/04/26 21:04:01;;;;;;;9.20;4.80;;;12.90;69.50;;;;;;5376601;26;20442;-68
2024/04/26 21:06:47;;;;;;;8.65;3.78;;;12.80;69.70;;;;;;5414221;26;20528;-68
2024/04/26 21:09:33;;;;;;;8.57;4.75;;;12.70;69.90;;;;;;5394069;26;20014;-68
2024/04/26 21:12:19;;;;;;;8.35;4.00;;;12.70;70.00;;;;;;5405275;26;20014;-68
2024/04/26 21:15:05;;;;;;;8.93;3.95;;;12.70;70.10;;;;;;5411145;26;20064;-68
2024/04/26 21:17:53;;;;;;;7.88;3.63;;;12.70;70.30;;;;;;5397323;26;20076;-69
2024/04/26 21:20:39;;;;;;;6.28;3.90;;;12.60;70.40;;;;;;5409599;26;19992;-68
2024/04/26 21:23:25;;;;;;;7.63;3.88;;;12.60;70.60;;;;;;5401749;26;19992;-68
2024/04/26 21:26:11;;;;;;;6.43;3.75;;;12.50;70.90;;;;;;5407382;26;20000;-68
2024/04/26 21:28:59;;;;;;;5.70;4.00;;;12.50;71.10;;;;;;5410065;26;20020;-68
2024/04/26 21:31:45;;;;;;;5.78;3.92;;;12.50;71.40;;;;;;5386681;26;20014;-68
2024/04/26 21:34:31;;;;;;;6.57;4.15;;;12.40;71.50;;;;;;5390442;26;20003;-69
2024/04/26 21:37:17;;;;;;;5.63;3.90;;;12.40;71.60;;;;;;5407795;26;20446;-68
2024/04/26 21:40:03;;;;;;;6.00;3.60;;;12.30;71.80;;;;;;5390860;26;20335;-68
2024/04/26 21:42:50;;;;;;;5.35;3.50;;;12.30;72.10;;;;;;5395390;26;20074;-67
2024/04/26 21:45:36;;;;;;;5.60;3.55;;;12.30;72.30;;;;;;5420157;26;20010;-68
2024/04/26 21:48:22;;;;;;;5.57;3.03;;;12.30;72.50;;;;;;5415338;26;19999;-68
2024/04/26 21:51:08;;;;;;;6.85;4.15;;;12.20;72.80;;;;;;5409756;26;19999;-67
2024/04/26 21:53:57;;;;;;;6.97;4.50;;;12.10;73.00;;;;;;5396876;26;20012;-67
2024/04/26 21:56:43;;;;;;;6.00;4.13;;;12.10;73.20;;;;;;5400117;26;20011;-68
2024/04/26 21:59:29;;;;;;;9.35;5.38;;;12.00;73.60;;;;;;5397934;26;20460;-68
2024/04/26 22:02:15;;;;;;;7.10;4.90;;;12.00;73.60;;;;;;5400192;26;20032;-68
2024/04/26 22:05:00;;;;;;;9.82;5.60;;;12.00;73.80;;;;;;5383863;26;20000;-68
2024/04/26 22:07:46;;;;;;;9.10;6.55;;;11.90;73.90;;;;;;5396192;26;20045;-67
2024/04/26 22:10:34;;;;;;;5.95;4.80;;;11.90;74.10;;;;;;5391303;26;19999;-68
2024/04/26 22:13:19;;;;;;;9.05;6.00;;;11.80;74.20;;;;;;5411757;26;20003;-68
2024/04/26 22:16:06;;;;;;;8.63;5.75;;;11.80;74.40;;;;;;5402943;26;20003;-68
2024/04/26 22:18:51;;;;;;;7.80;5.47;;;11.70;74.60;;;;;;5406988;26;20339;-68
2024/04/26 22:21:37;;;;;;;8.82;5.60;;;11.70;74.70;;;;;;5389024;26;20000;-68
2024/04/26 22:24:24;;;;;;;8.05;4.88;;;11.70;75.00;;;;;;5403647;26;20007;-67
2024/04/26 22:27:10;;;;;;;9.98;5.47;;;11.60;75.20;;;;;;5420028;26;20008;-67
2024/04/26 22:29:57;;;;;;;8.80;5.45;;;11.60;75.30;;;;;;5352745;26;19992;-68
2024/04/26 22:32:43;;;;;;;10.27;5.80;;;11.50;75.50;;;;;;5385884;26;20010;-68
2024/04/26 22:35:28;;;;;;;6.05;4.65;;;11.50;75.70;;;;;;5409680;26;20019;-68
2024/04/26 22:38:14;;;;;;;10.95;5.15;;;11.50;75.90;;;;;;5411838;26;20461;-67
2024/04/26 22:41:02;;;;;;;9.55;5.75;;;11.50;76.10;;;;;;5400380;26;20073;-68
2024/04/26 22:43:48;;;;;;;10.43;5.40;;;11.40;76.30;;;;;;5395625;26;20003;-67
2024/04/26 22:46:34;;;;;;;7.13;5.10;;;11.40;76.40;;;;;;5423211;26;20011;-68
2024/04/26 22:49:20;;;;;;;9.23;4.97;;;11.40;76.50;;;;;;5409206;26;20035;-68
2024/04/26 22:52:06;;;;;;;6.88;4.88;;;11.40;76.70;;;;;;5379532;26;19996;-68
2024/04/26 22:54:52;;;;;;;6.63;4.47;;;11.30;76.80;;;;;;5390165;26;20000;-68
2024/04/26 22:57:38;;;;;;;7.93;4.85;;;11.30;77.00;;;;;;5405802;26;20031;-67
2024/04/26 23:00:24;;;;;;;9.27;5.55;;;11.30;77.20;;;;;;5389575;26;20009;-66
2024/04/26 23:03:10;;;;;;;7.85;5.38;;;11.20;77.30;;;;;;5413424;26;20002;-67
2024/04/26 23:05:56;;;;;;;8.60;5.55;;;11.20;77.50;;;;;;5412702;26;20393;-67
2024/04/26 23:08:43;;;;;;;9.32;5.78;;;11.10;77.60;;;;;;5429702;26;20069;-66
2024/04/26 23:11:33;;;;;;;9.07;5.68;;;11.10;77.80;;;;;;5413359;26;20093;-66
2024/04/26 23:14:19;;;;;;;8.25;5.72;;;11.10;78.40;;;;;;5388329;26;20028;-66
2024/04/26 23:17:05;;;;;;;8.85;6.05;;;11.00;78.40;;;;;;5411702;26;20004;-67
2024/04/26 23:19:51;;;;;;;8.68;6.07;;;11.00;78.60;;;;;;5403943;26;20006;-67
2024/04/26 23:22:37;;;;;;;10.73;6.50;;;11.00;78.80;;;;;;5391922;26;20015;-67
2024/04/26 23:25:23;;;;;;;8.68;6.10;;;10.90;79.00;;;;;;5413067;26;20007;-68
2024/04/26 23:28:09;;;;;;;10.43;5.80;;;10.90;79.30;;;;;;5405748;26;20000;-68
2024/04/26 23:30:55;;;;;;;9.98;6.18;;;10.90;79.50;;;;;;5417587;26;20138;-68
2024/04/26 23:33:41;;;;;;;8.88;5.35;;;10.90;79.80;;;;;;5414722;26;20019;-67
2024/04/26 23:36:27;;;;;;;10.52;6.28;;;10.90;80.10;;;;;;5383969;26;19992;-67
2024/04/26 23:39:13;;;;;;;9.35;6.07;;;10.90;80.10;;;;;;5357522;26;20471;-68
2024/04/26 23:41:58;;;;;;;9.20;5.80;;;10.90;80.30;;;;;;5376541;26;20082;-68
2024/04/26 23:44:44;;;;;;;12.00;6.82;;;10.80;80.30;;;;;;5412712;26;20003;-67
2024/04/26 23:47:30;;;;;;;8.23;5.85;;;10.80;80.60;;;;;;5416388;26;20019;-67
2024/04/26 23:50:16;;;;;;;9.38;6.43;;;10.70;80.90;;;;;;5394751;26;20031;-68
2024/04/26 23:53:02;;;;;;;10.77;6.05;;;10.70;80.90;;;;;;5413277;26;20080;-68
2024/04/26 23:55:48;;;;;;;8.88;5.90;;;10.70;81.10;;;;;;5412687;26;19999;-69
2024/04/26 23:58:34;;;;;;;8.50;6.38;;;10.70;81.50;;;;;;5404593;26;19996;-69
